Time;durP1;ratioP1;P1;durP2;ratioP2;P2;SDS_P1;SDS_P2;PMS_P1;PMS_P2;Temp;Humidity;BMP_temperature;BMP_pressure;BME280_temperature;BME280_humidity;BME280_pressure;Samples;Min_cycle;Max_cycle;Signal;HPM_P1;HPM_P2
2021/04/24 00:00:34;;;;;;;9.43;4.57;;;5.00;59.50;;;;;;5203689;28;20049;-67
2021/04/24 00:03:08;;;;;;;9.02;4.95;;;5.00;60.20;;;;;;5202652;28;20033;-67
2021/04/24 00:05:42;;;;;;;7.25;4.22;;;4.90;60.00;;;;;;5200298;28;20073;-69
2021/04/24 00:08:15;;;;;;;8.13;4.10;;;5.00;59.50;;;;;;5199478;28;20041;-67
2021/04/24 00:10:48;;;;;;;9.15;4.15;;;4.90;60.30;;;;;;5186491;28;20037;-67
2021/04/24 00:13:19;;;;;;;6.80;4.13;;;4.80;60.60;;;;;;5200927;28;20099;-67
2021/04/24 00:15:51;;;;;;;10.07;4.25;;;4.70;61.20;;;;;;5201025;28;20419;-68
2021/04/24 00:18:22;;;;;;;8.98;4.07;;;4.70;61.00;;;;;;5202595;28;20055;-68
2021/04/24 00:20:54;;;;;;;7.50;4.00;;;4.70;61.20;;;;;;5229836;28;20048;-67
2021/04/24 00:23:25;;;;;;;8.32;4.60;;;4.70;61.40;;;;;;5199850;28;20450;-67
2021/04/24 00:25:57;;;;;;;8.45;4.40;;;4.60;61.40;;;;;;5205288;28;20041;-68
2021/04/24 00:28:29;;;;;;;7.93;4.05;;;4.60;61.50;;;;;;5207090;28;20049;-67
2021/04/24 00:31:00;;;;;;;9.23;4.07;;;4.60;61.20;;;;;;5219802;28;20049;-67
2021/04/24 00:33:32;;;;;;;8.75;4.22;;;4.60;61.30;;;;;;5203619;28;20053;-67
2021/04/24 00:36:04;;;;;;;8.05;4.20;;;4.60;62.50;;;;;;5202976;28;20053;-68
2021/04/24 00:38:36;;;;;;;7.70;4.00;;;4.60;61.90;;;;;;5206605;28;20538;-67
2021/04/24 00:41:07;;;;;;;7.38;4.03;;;4.50;61.90;;;;;;5202613;28;21230;-67
2021/04/24 00:43:39;;;;;;;7.50;4.03;;;4.60;62.20;;;;;;5236027;28;20041;-68
2021/04/24 00:46:13;;;;;;;10.27;4.45;;;4.40;62.30;;;;;;5202729;28;20103;-67
2021/04/24 00:48:44;;;;;;;7.20;3.88;;;4.50;62.20;;;;;;5201820;28;20409;-69
2021/04/24 00:51:17;;;;;;;7.90;4.38;;;4.30;63.10;;;;;;5234554;28;20049;-68
2021/04/24 00:53:48;;;;;;;8.07;3.92;;;4.30;63.10;;;;;;5203240;28;20046;-68
2021/04/24 00:56:19;;;;;;;5.90;3.60;;;4.30;63.30;;;;;;5203300;28;20149;-68
2021/04/24 00:58:51;;;;;;;8.70;4.05;;;4.30;63.40;;;;;;5219500;28;20055;-68
2021/04/24 01:01:22;;;;;;;9.82;4.40;;;4.30;63.10;;;;;;5235991;28;20049;-68
2021/04/24 01:03:55;;;;;;;7.80;4.10;;;4.30;63.20;;;;;;5205382;28;20355;-67
2021/04/24 01:06:27;;;;;;;9.27;4.47;;;4.30;63.00;;;;;;5207327;28;20081;-67
2021/04/24 01:08:59;;;;;;;8.07;4.70;;;4.30;62.60;;;;;;5204956;28;20052;-68
2021/04/24 01:11:30;;;;;;;6.90;4.30;;;4.20;63.10;;;;;;5202956;28;20411;-67
2021/04/24 01:14:02;;;;;;;8.38;4.10;;;4.20;62.30;;;;;;5203028;28;20050;-64
2021/04/24 01:16:34;;;;;;;7.07;4.35;;;4.20;62.20;;;;;;5236070;28;20041;-66
2021/04/24 01:19:07;;;;;;;7.68;4.25;;;4.10;62.30;;;;;;5202634;28;20040;-65
2021/04/24 01:21:39;;;;;;;8.90;4.40;;;4.10;63.50;;;;;;5204907;28;20041;-64
2021/04/24 01:24:11;;;;;;;8.80;4.88;;;4.10;62.70;;;;;;5234561;28;20034;-64
2021/04/24 01:26:42;;;;;;;8.07;4.38;;;4.00;62.80;;;;;;5236632;28;20053;-65
2021/04/24 01:29:14;;;;;;;6.72;4.05;;;3.90;64.00;;;;;;5207408;28;20100;-65
2021/04/24 01:31:46;;;;;;;8.68;3.97;;;4.00;64.00;;;;;;5205470;28;20040;-64
2021/04/24 01:34:18;;;;;;;7.80;4.43;;;3.90;63.30;;;;;;5201505;28;20045;-64
2021/04/24 01:36:49;;;;;;;7.10;3.80;;;3.90;64.10;;;;;;5189053;28;20099;-65
2021/04/24 01:39:20;;;;;;;9.80;4.45;;;3.80;64.90;;;;;;5205532;28;20037;-65
2021/04/24 01:41:52;;;;;;;8.10;4.13;;;3.70;65.20;;;;;;5234242;28;20045;-66
2021/04/24 01:44:25;;;;;;;10.10;4.45;;;3.70;65.20;;;;;;5205292;28;20042;-65
2021/04/24 01:46:56;;;;;;;7.32;3.80;;;3.70;66.00;;;;;;5236279;28;20522;-65
2021/04/24 01:49:28;;;;;;;8.45;4.38;;;3.60;66.00;;;;;;5237199;28;20498;-66
2021/04/24 01:51:59;;;;;;;6.78;4.10;;;3.60;65.70;;;;;;5203526;28;20071;-65
2021/04/24 01:54:31;;;;;;;7.15;4.47;;;3.70;65.90;;;;;;5205718;28;20128;-65
2021/04/24 01:57:03;;;;;;;9.13;4.75;;;3.60;66.10;;;;;;5202061;28;20049;-65
2021/04/24 01:59:36;;;;;;;8.70;4.30;;;3.60;65.20;;;;;;5201630;28;20111;-65
2021/04/24 02:02:07;;;;;;;7.00;4.20;;;3.50;64.90;;;;;;5201439;28;20123;-65
2021/04/24 02:04:39;;;;;;;11.98;4.78;;;3.50;65.00;;;;;;5204416;28;20030;-65
2021/04/24 02:07:11;;;;;;;8.88;4.30;;;3.40;65.60;;;;;;5183114;28;20411;-65
2021/04/24 02:09:43;;;;;;;8.13;4.55;;;3.40;65.00;;;;;;5202814;28;20050;-65
2021/04/24 02:12:14;;;;;;;8.95;4.18;;;3.50;65.10;;;;;;5200531;28;20209;-65
2021/04/24 02:14:48;;;;;;;7.30;3.85;;;3.50;64.50;;;;;;5203161;28;20645;-65
2021/04/24 02:17:26;;;;;;;8.57;3.70;;;3.50;65.00;;;;;;5235036;28;20476;-65
2021/04/24 02:19:58;;;;;;;8.13;4.40;;;3.40;66.30;;;;;;5203749;28;20049;-66
2021/04/24 02:22:29;;;;;;;7.53;4.30;;;3.40;66.10;;;;;;5232162;28;20519;-65
2021/04/24 02:25:03;;;;;;;8.05;4.68;;;3.50;65.40;;;;;;5220127;28;20068;-67
2021/04/24 02:27:34;;;;;;;7.47;4.10;;;3.40;66.00;;;;;;5216066;28;20136;-65
2021/04/24 02:30:10;;;;;;;7.10;4.20;;;3.40;65.90;;;;;;5202557;28;20033;-64
2021/04/24 02:32:42;;;;;;;8.68;4.35;;;3.40;65.20;;;;;;5235551;28;20068;-64
2021/04/24 02:35:18;;;;;;;7.40;3.95;;;3.30;66.20;;;;;;5220777;28;20114;-65
2021/04/24 02:37:50;;;;;;;10.30;4.10;;;3.30;66.90;;;;;;5202219;28;20128;-65
2021/04/24 02:40:22;;;;;;;8.02;4.00;;;3.30;66.30;;;;;;5203581;28;20037;-65
2021/04/24 02:42:53;;;;;;;8.23;4.00;;;3.30;66.40;;;;;;5236121;28;20045;-65
2021/04/24 02:45:24;;;;;;;8.85;4.15;;;3.20;67.30;;;;;;5202639;28;20053;-65
2021/04/24 02:47:56;;;;;;;9.25;4.53;;;3.20;67.30;;;;;;5200931;28;20060;-65
2021/04/24 02:50:28;;;;;;;6.90;3.83;;;3.20;67.10;;;;;;5202879;28;20144;-65
2021/04/24 02:52:59;;;;;;;9.07;4.50;;;3.20;67.40;;;;;;5202070;28;20095;-66
2021/04/24 02:55:31;;;;;;;10.40;5.07;;;3.20;67.90;;;;;;5182987;28;20134;-65
2021/04/24 02:58:03;;;;;;;9.93;4.30;;;3.20;68.50;;;;;;5233315;28;20112;-66
2021/04/24 03:00:35;;;;;;;8.90;4.00;;;3.20;66.60;;;;;;5200322;28;20045;-65
2021/04/24 03:03:09;;;;;;;7.57;4.28;;;3.10;66.80;;;;;;5199479;28;20455;-67
2021/04/24 03:05:43;;;;;;;7.50;3.97;;;3.20;66.20;;;;;;5219517;28;20112;-66
2021/04/24 03:08:14;;;;;;;7.15;3.75;;;3.10;65.60;;;;;;5200207;28;20061;-65
2021/04/24 03:10:46;;;;;;;9.38;4.28;;;3.10;67.40;;;;;;5201826;28;20089;-66
2021/04/24 03:13:17;;;;;;;11.50;4.15;;;3.00;66.40;;;;;;5202731;28;20037;-66
2021/04/24 03:15:49;;;;;;;9.15;4.00;;;3.00;67.90;;;;;;5200821;28;20049;-66
2021/04/24 03:18:20;;;;;;;6.47;3.88;;;3.00;68.40;;;;;;5236679;28;20091;-66
2021/04/24 03:20:52;;;;;;;9.02;4.20;;;3.00;69.00;;;;;;5202262;28;20054;-65
2021/04/24 03:23:24;;;;;;;9.73;4.47;;;3.00;67.80;;;;;;5233423;28;20046;-66
2021/04/24 03:25:55;;;;;;;6.45;3.90;;;2.90;68.20;;;;;;5201530;28;20045;-65
2021/04/24 03:28:27;;;;;;;7.07;3.75;;;3.00;67.90;;;;;;5201741;28;20096;-66
2021/04/24 03:30:59;;;;;;;9.68;4.05;;;3.00;67.40;;;;;;5218653;28;20048;-66
2021/04/24 03:33:30;;;;;;;6.97;4.00;;;3.10;66.60;;;;;;5202798;28;20056;-66
2021/04/24 03:36:02;;;;;;;6.53;4.00;;;3.00;66.60;;;;;;5184894;28;20570;-65
2021/04/24 03:38:35;;;;;;;8.02;4.22;;;2.90;67.80;;;;;;5201486;28;20045;-66
2021/04/24 03:41:07;;;;;;;7.47;3.95;;;2.90;68.50;;;;;;5202355;28;20048;-65
2021/04/24 03:43:39;;;;;;;8.07;4.18;;;2.80;68.10;;;;;;5203598;28;20034;-65
2021/04/24 03:46:10;;;;;;;7.32;4.40;;;2.80;69.50;;;;;;5235862;28;20495;-65
2021/04/24 03:48:42;;;;;;;8.32;4.43;;;2.80;68.70;;;;;;5203329;28;20029;-65
2021/04/24 03:51:13;;;;;;;7.97;4.15;;;2.80;68.70;;;;;;5203189;28;20045;-65
2021/04/24 03:53:45;;;;;;;8.50;4.30;;;2.70;69.00;;;;;;5202390;28;20263;-65
2021/04/24 03:56:17;;;;;;;8.00;4.65;;;2.70;70.10;;;;;;5233176;28;20052;-65
2021/04/24 03:58:48;;;;;;;6.90;3.83;;;2.60;70.90;;;;;;5203148;28;20040;-65
2021/04/24 04:01:20;;;;;;;7.00;4.10;;;2.70;70.90;;;;;;5200770;28;20168;-65
2021/04/24 04:03:51;;;;;;;9.18;5.20;;;2.70;69.20;;;;;;5200280;28;20049;-65
2021/04/24 04:06:23;;;;;;;7.03;4.28;;;2.70;67.60;;;;;;5201182;28;20055;-65
2021/04/24 04:08:54;;;;;;;7.75;4.65;;;2.60;67.00;;;;;;5200620;28;20124;-65
2021/04/24 04:11:26;;;;;;;9.70;4.47;;;2.60;67.10;;;;;;5234510;28;20083;-65
2021/04/24 04:13:57;;;;;;;7.53;4.78;;;2.60;68.00;;;;;;5236570;28;20142;-65
2021/04/24 04:16:29;;;;;;;7.60;4.88;;;2.50;69.40;;;;;;5204669;28;20068;-65
2021/04/24 04:19:00;;;;;;;7.75;4.72;;;2.50;68.70;;;;;;5217116;28;20095;-64
2021/04/24 04:21:32;;;;;;;8.57;5.00;;;2.60;68.10;;;;;;5201169;28;20052;-64
2021/04/24 04:24:04;;;;;;;11.20;4.30;;;2.60;67.40;;;;;;5197134;28;20067;-65
2021/04/24 04:26:35;;;;;;;8.18;4.80;;;2.60;67.50;;;;;;5201622;28;20041;-64
2021/04/24 04:29:07;;;;;;;6.75;3.90;;;2.60;66.50;;;;;;5202181;28;20038;-64
2021/04/24 04:31:38;;;;;;;7.43;4.85;;;2.70;67.60;;;;;;5198957;28;20107;-64
2021/04/24 04:34:09;;;;;;;7.40;4.15;;;2.60;67.20;;;;;;5200269;28;20037;-64
2021/04/24 04:36:41;;;;;;;7.05;4.25;;;2.60;67.70;;;;;;5199707;28;20041;-64
2021/04/24 04:39:12;;;;;;;8.18;4.40;;;2.50;67.80;;;;;;5201419;28;20094;-64
2021/04/24 04:41:44;;;;;;;8.55;4.45;;;2.50;68.40;;;;;;5194397;28;20046;-64
2021/04/24 04:44:15;;;;;;;6.80;3.90;;;2.50;68.40;;;;;;5201486;28;20565;-64
2021/04/24 04:46:47;;;;;;;6.70;3.72;;;2.50;68.80;;;;;;5231300;28;20096;-66
2021/04/24 04:49:19;;;;;;;9.13;4.20;;;2.40;69.10;;;;;;5200860;28;20407;-66
2021/04/24 04:51:51;;;;;;;7.60;4.47;;;2.50;69.50;;;;;;5200908;28;20110;-65
2021/04/24 04:54:22;;;;;;;7.47;4.53;;;2.50;68.80;;;;;;5201837;28;20080;-65
2021/04/24 04:56:54;;;;;;;8.57;4.88;;;2.70;68.20;;;;;;5231486;28;20064;-65
2021/04/24 04:59:28;;;;;;;11.63;6.68;;;2.80;68.10;;;;;;5202100;28;20049;-64
2021/04/24 05:02:00;;;;;;;13.18;6.15;;;2.90;67.20;;;;;;5229884;28;20117;-64
2021/04/24 05:04:38;;;;;;;10.70;4.70;;;3.10;67.00;;;;;;5214951;28;20065;-65
2021/04/24 05:07:09;;;;;;;7.70;5.00;;;3.10;69.80;;;;;;5201176;28;20664;-64
2021/04/24 05:09:42;;;;;;;14.13;4.90;;;3.20;70.10;;;;;;5201864;28;20049;-65
2021/04/24 05:12:13;;;;;;;10.45;5.00;;;3.30;67.50;;;;;;5201617;28;20048;-65
2021/04/24 05:14:44;;;;;;;8.40;5.13;;;3.30;67.50;;;;;;5207665;28;20442;-65
2021/04/24 05:17:16;;;;;;;7.78;4.47;;;3.40;67.10;;;;;;5205353;28;20487;-64
2021/04/24 05:19:48;;;;;;;10.30;5.00;;;3.60;67.50;;;;;;5203994;28;20040;-65
2021/04/24 05:22:20;;;;;;;8.27;5.03;;;3.60;67.90;;;;;;5203515;28;20045;-64
2021/04/24 05:24:52;;;;;;;8.70;5.32;;;3.80;67.00;;;;;;5203910;28;20099;-65
2021/04/24 05:27:24;;;;;;;10.13;5.22;;;3.90;67.30;;;;;;5203607;28;20069;-65
2021/04/24 05:29:55;;;;;;;8.90;5.40;;;4.10;66.60;;;;;;5202453;28;20091;-64
2021/04/24 05:32:27;;;;;;;15.20;9.98;;;4.20;66.90;;;;;;5198935;28;20107;-64
2021/04/24 05:34:58;;;;;;;19.55;10.93;;;4.20;67.40;;;;;;5203570;28;20732;-64
2021/04/24 05:37:30;;;;;;;15.15;10.00;;;4.40;66.40;;;;;;5204983;28;20125;-65
2021/04/24 05:40:02;;;;;;;9.85;6.03;;;4.70;66.00;;;;;;5202157;28;20097;-66
2021/04/24 05:42:35;;;;;;;9.32;5.63;;;4.80;65.10;;;;;;5201539;28;20064;-64
2021/04/24 05:45:11;;;;;;;10.75;5.90;;;5.00;65.20;;;;;;5202257;28;20061;-65
2021/04/24 05:47:46;;;;;;;9.90;6.00;;;5.20;64.20;;;;;;5202288;28;20067;-65
2021/04/24 05:50:22;;;;;;;9.80;5.45;;;5.30;64.00;;;;;;5219567;28;20407;-66
2021/04/24 05:52:58;;;;;;;9.25;5.68;;;5.50;63.30;;;;;;5205034;28;20065;-65
2021/04/24 05:55:29;;;;;;;8.05;5.28;;;5.60;62.60;;;;;;5203983;28;20045;-65
2021/04/24 05:58:01;;;;;;;10.75;5.93;;;5.60;62.40;;;;;;5204582;28;20049;-64
2021/04/24 06:00:32;;;;;;;8.95;5.40;;;5.70;62.30;;;;;;5202135;28;20053;-63
2021/04/24 06:03:04;;;;;;;9.88;5.63;;;5.80;62.20;;;;;;5203239;28;20123;-65
2021/04/24 06:05:35;;;;;;;7.47;4.85;;;5.90;61.80;;;;;;5201544;28;20052;-65
2021/04/24 06:08:11;;;;;;;8.23;5.32;;;6.10;61.90;;;;;;5201692;28;20048;-64
2021/04/24 06:10:42;;;;;;;9.35;5.40;;;6.20;62.00;;;;;;5200939;28;20049;-64
2021/04/24 06:13:14;;;;;;;11.73;5.82;;;6.40;61.70;;;;;;5201451;28;20049;-64
2021/04/24 06:15:45;;;;;;;10.05;5.72;;;6.60;61.30;;;;;;5203985;28;20456;-65
2021/04/24 06:18:17;;;;;;;9.02;5.13;;;6.70;61.10;;;;;;5201736;28;20049;-65
2021/04/24 06:20:48;;;;;;;7.63;5.40;;;6.90;59.80;;;;;;5202435;28;20046;-66
2021/04/24 06:23:20;;;;;;;10.30;4.88;;;7.00;59.20;;;;;;5201784;28;20042;-65
2021/04/24 06:25:51;;;;;;;8.18;4.65;;;7.20;59.60;;;;;;5200467;28;20513;-65
2021/04/24 06:28:23;;;;;;;9.73;5.60;;;7.40;58.40;;;;;;5200160;28;20135;-64
2021/04/24 06:30:54;;;;;;;8.98;5.45;;;7.60;57.70;;;;;;5198271;28;20468;-64
2021/04/24 06:33:26;;;;;;;8.68;5.47;;;7.70;57.30;;;;;;5198906;28;20060;-64
2021/04/24 06:35:57;;;;;;;7.43;5.30;;;7.90;57.50;;;;;;5198752;28;20042;-64
2021/04/24 06:38:29;;;;;;;9.10;4.85;;;8.10;57.90;;;;;;5199400;28;20045;-64
2021/04/24 06:41:00;;;;;;;8.32;4.65;;;8.30;56.10;;;;;;5184696;28;20057;-64
2021/04/24 06:43:32;;;;;;;7.30;4.90;;;8.60;55.00;;;;;;5231330;28;20111;-65
2021/04/24 06:46:03;;;;;;;7.38;4.60;;;8.60;54.00;;;;;;5200374;28;20596;-65
2021/04/24 06:48:34;;;;;;;7.57;4.93;;;8.80;56.00;;;;;;5200553;28;20495;-64
2021/04/24 06:51:06;;;;;;;6.82;4.55;;;9.00;53.60;;;;;;5196701;28;20038;-65
2021/04/24 06:53:40;;;;;;;7.25;4.93;;;9.10;52.20;;;;;;5198506;28;20161;-64
2021/04/24 06:56:11;;;;;;;8.10;4.47;;;9.10;51.70;;;;;;5230824;28;20069;-65
2021/04/24 06:58:43;;;;;;;9.40;5.53;;;9.20;52.80;;;;;;5198929;28;20046;-64
2021/04/24 07:01:15;;;;;;;6.95;4.85;;;9.30;52.20;;;;;;5198145;28;20608;-65
2021/04/24 07:03:48;;;;;;;7.63;4.55;;;9.50;51.90;;;;;;5198139;28;20168;-65
2021/04/24 07:06:20;;;;;;;7.88;5.70;;;9.60;52.50;;;;;;5230452;28;20203;-65
2021/04/24 07:08:52;;;;;;;7.82;4.78;;;9.70;51.50;;;;;;5199669;28;20041;-65
2021/04/24 07:11:23;;;;;;;7.43;4.78;;;9.90;49.00;;;;;;5198755;28;20072;-65
2021/04/24 07:13:55;;;;;;;7.55;4.82;;;10.10;51.40;;;;;;5232998;28;20068;-65
2021/04/24 07:16:26;;;;;;;9.25;5.50;;;10.20;48.80;;;;;;5200364;28;20053;-65
2021/04/24 07:18:57;;;;;;;7.47;5.10;;;10.40;47.70;;;;;;5198172;28;20466;-65
2021/04/24 07:21:29;;;;;;;7.13;5.03;;;10.60;49.70;;;;;;5212379;28;20830;-66
2021/04/24 07:24:01;;;;;;;8.07;5.25;;;10.80;47.80;;;;;;5200469;28;20056;-66
2021/04/24 07:26:32;;;;;;;6.97;5.18;;;11.00;46.80;;;;;;5199220;28;20693;-66
2021/04/24 07:29:05;;;;;;;9.82;5.22;;;11.10;45.90;;;;;;5202075;28;20045;-65
2021/04/24 07:31:37;;;;;;;6.97;5.32;;;11.20;45.10;;;;;;5212519;28;20073;-66
2021/04/24 07:34:10;;;;;;;7.05;5.32;;;11.40;45.60;;;;;;5203600;28;20128;-66
2021/04/24 07:36:42;;;;;;;8.43;5.45;;;11.50;44.00;;;;;;5196709;28;20052;-63
2021/04/24 07:42:46;;;;;;;8.07;5.30;;;11.80;45.50;;;;;;5198810;28;20060;-63
2021/04/24 07:45:17;;;;;;;8.30;5.68;;;12.00;45.50;;;;;;5202717;28;20029;-64
2021/04/24 07:47:49;;;;;;;7.70;5.63;;;12.10;43.30;;;;;;5201982;28;20049;-63
2021/04/24 07:50:20;;;;;;;7.22;5.65;;;12.30;43.80;;;;;;5199707;28;20048;-63
2021/04/24 07:52:52;;;;;;;6.25;5.00;;;12.50;42.60;;;;;;5193829;28;20072;-62
2021/04/24 07:55:23;;;;;;;7.00;5.47;;;12.70;39.30;;;;;;5195603;28;20839;-63
2021/04/24 07:57:54;;;;;;;7.55;5.60;;;12.80;39.00;;;;;;5199246;28;20143;-62
2021/04/24 08:00:26;;;;;;;7.75;5.18;;;12.90;41.90;;;;;;5199017;28;20694;-63
2021/04/24 08:02:58;;;;;;;8.00;5.60;;;13.00;40.50;;;;;;5231868;28;20057;-63
2021/04/24 08:05:29;;;;;;;8.05;5.65;;;13.10;39.90;;;;;;5197673;28;20063;-62
2021/04/24 08:08:03;;;;;;;8.18;5.93;;;13.20;38.90;;;;;;5202573;28;20053;-62
2021/04/24 08:10:35;;;;;;;9.35;6.22;;;13.40;40.60;;;;;;5201126;28;20095;-65
2021/04/24 08:13:07;;;;;;;8.50;6.35;;;13.50;39.50;;;;;;5198864;28;20720;-63
2021/04/24 08:15:38;;;;;;;9.52;6.40;;;13.70;38.00;;;;;;5200917;28;20449;-63
2021/04/24 08:18:09;;;;;;;7.40;6.03;;;13.90;39.10;;;;;;5197261;28;20041;-63
2021/04/24 08:20:41;;;;;;;9.82;6.40;;;14.00;34.60;;;;;;5232296;28;20061;-62
2021/04/24 08:23:13;;;;;;;10.57;6.65;;;14.20;37.20;;;;;;5198885;28;20041;-63
2021/04/24 08:25:44;;;;;;;8.80;6.53;;;14.30;35.80;;;;;;5198000;28;20135;-63
2021/04/24 08:28:15;;;;;;;8.75;6.82;;;14.30;36.30;;;;;;5199656;28;20454;-65
2021/04/24 08:30:47;;;;;;;10.85;7.18;;;14.40;36.50;;;;;;5198538;28;20529;-64
2021/04/24 08:33:18;;;;;;;9.48;7.00;;;14.50;35.00;;;;;;5199651;28;20084;-66
2021/04/24 08:35:50;;;;;;;9.05;7.53;;;14.60;36.30;;;;;;5198523;28;20463;-63
2021/04/24 08:38:22;;;;;;;10.45;7.18;;;14.70;36.30;;;;;;5195713;28;20531;-63
2021/04/24 08:40:57;;;;;;;11.25;6.97;;;14.90;36.00;;;;;;5194058;28;20037;-64
2021/04/24 08:43:29;;;;;;;10.10;6.88;;;15.00;34.70;;;;;;5193263;28;20578;-63
2021/04/24 08:46:01;;;;;;;9.55;8.10;;;15.00;33.30;;;;;;5189132;28;20053;-63
2021/04/24 08:48:34;;;;;;;9.77;7.80;;;15.20;33.40;;;;;;5196207;28;20736;-63
2021/04/24 08:51:05;;;;;;;12.23;7.43;;;15.30;34.30;;;;;;5194453;28;20069;-63
2021/04/24 08:53:37;;;;;;;10.10;7.13;;;15.50;33.50;;;;;;5195176;28;20041;-63
2021/04/24 08:56:09;;;;;;;10.82;7.50;;;15.50;32.50;;;;;;5194114;28;20059;-63
2021/04/24 08:58:40;;;;;;;8.27;6.93;;;15.70;33.90;;;;;;5195095;28;20644;-64
2021/04/24 09:01:12;;;;;;;11.45;8.43;;;15.70;34.60;;;;;;5189986;28;20128;-63
2021/04/24 09:03:43;;;;;;;7.93;6.97;;;15.80;34.50;;;;;;5193675;28;20071;-65
2021/04/24 09:06:20;;;;;;;9.90;7.40;;;15.90;33.40;;;;;;5191299;28;20060;-63
2021/04/24 09:08:54;;;;;;;9.73;8.02;;;15.90;32.80;;;;;;5193916;28;20069;-63
2021/04/24 09:11:26;;;;;;;8.32;7.25;;;16.10;32.30;;;;;;5188932;28;20135;-63
2021/04/24 09:14:04;;;;;;;9.88;8.02;;;16.10;32.80;;;;;;5192610;28;20041;-63
2021/04/24 09:16:38;;;;;;;9.90;7.35;;;16.30;32.40;;;;;;5194797;28;20049;-63
2021/04/24 09:19:33;;;;;;;10.93;7.70;;;16.30;30.00;;;;;;5192825;28;20077;-62
2021/04/24 09:22:23;;;;;;;8.10;6.57;;;16.40;31.90;;;;;;5190068;28;20052;-63
2021/04/24 09:24:55;;;;;;;10.73;7.57;;;16.50;31.60;;;;;;5193396;28;20069;-63
2021/04/24 09:27:47;;;;;;;10.20;8.02;;;16.60;32.50;;;;;;5192195;28;20676;-62
2021/04/24 09:30:28;;;;;;;9.70;7.97;;;16.70;31.70;;;;;;5193155;28;20065;-63
2021/04/24 09:33:12;;;;;;;11.00;8.18;;;16.80;32.50;;;;;;5227735;28;20042;-63
2021/04/24 09:35:50;;;;;;;10.80;6.85;;;16.80;31.50;;;;;;5189321;28;20057;-63
2021/04/24 09:38:34;;;;;;;10.57;7.70;;;16.80;31.10;;;;;;5208458;28;20046;-63
2021/04/24 09:41:27;;;;;;;9.52;7.35;;;16.90;31.40;;;;;;5191969;28;20071;-63
2021/04/24 09:44:10;;;;;;;11.30;7.80;;;17.00;30.20;;;;;;5188684;28;20522;-63
2021/04/24 09:46:58;;;;;;;12.98;8.00;;;17.10;31.20;;;;;;5195086;28;20783;-63
2021/04/24 09:49:33;;;;;;;10.57;8.13;;;17.20;32.10;;;;;;5190505;28;20714;-63
2021/04/24 09:52:06;;;;;;;9.20;7.40;;;17.20;30.80;;;;;;5191618;28;20128;-63
2021/04/24 09:54:42;;;;;;;11.45;7.53;;;17.30;31.30;;;;;;5192971;28;20049;-63
2021/04/24 09:57:25;;;;;;;9.70;8.15;;;17.40;31.30;;;;;;5192495;28;20053;-63
2021/04/24 10:00:04;;;;;;;9.65;7.90;;;17.40;30.90;;;;;;5188609;28;20144;-64
2021/04/24 10:02:45;;;;;;;10.63;8.38;;;17.50;31.00;;;;;;5190451;28;20045;-63
2021/04/24 10:05:19;;;;;;;10.38;8.15;;;17.50;29.70;;;;;;5187766;28;20041;-62
2021/04/24 10:07:55;;;;;;;10.07;8.38;;;17.60;29.70;;;;;;5194750;28;20677;-63
2021/04/24 10:10:29;;;;;;;9.85;7.97;;;17.60;30.00;;;;;;5191360;28;20128;-64
2021/04/24 10:13:03;;;;;;;9.27;7.68;;;17.70;30.20;;;;;;5191439;28;20754;-63
2021/04/24 10:15:35;;;;;;;11.93;8.35;;;17.50;30.40;;;;;;5191302;28;20136;-63
2021/04/24 10:18:09;;;;;;;9.60;8.57;;;17.70;30.40;;;;;;5225743;28;20056;-63
2021/04/24 10:20:44;;;;;;;10.82;8.00;;;17.80;31.80;;;;;;5192037;28;20057;-63
2021/04/24 10:23:16;;;;;;;9.30;8.30;;;17.90;31.60;;;;;;5191811;28;20044;-64
2021/04/24 10:25:49;;;;;;;12.45;8.57;;;17.90;30.50;;;;;;5189491;28;20072;-63
2021/04/24 10:28:21;;;;;;;11.15;8.40;;;18.00;29.70;;;;;;5189621;28;20038;-63
2021/04/24 10:30:53;;;;;;;13.57;10.30;;;18.10;29.80;;;;;;5191353;28;20199;-63
2021/04/24 10:33:26;;;;;;;9.30;8.27;;;18.10;29.80;;;;;;5192359;28;20807;-63
2021/04/24 10:35:58;;;;;;;9.75;7.63;;;18.20;29.50;;;;;;5192130;28;20049;-63
2021/04/24 10:38:31;;;;;;;11.90;10.10;;;18.20;27.70;;;;;;5191795;28;20045;-63
2021/04/24 10:41:04;;;;;;;16.45;12.30;;;18.30;29.40;;;;;;5187265;28;20053;-63
2021/04/24 10:43:35;;;;;;;29.35;20.42;;;18.40;29.40;;;;;;5189843;28;20108;-63
2021/04/24 10:46:28;;;;;;;12.30;9.80;;;18.50;28.30;;;;;;5190301;28;20408;-63
2021/04/24 10:49:17;;;;;;;10.63;8.70;;;18.40;29.30;;;;;;5192688;28;20588;-64
2021/04/24 10:52:19;;;;;;;14.18;11.10;;;18.50;27.50;;;;;;5193212;28;20140;-63
2021/04/24 10:55:13;;;;;;;10.48;9.10;;;18.60;27.40;;;;;;5195484;28;20120;-63
2021/04/24 10:57:48;;;;;;;9.23;8.32;;;18.60;26.90;;;;;;5195861;28;20099;-63
2021/04/24 11:00:29;;;;;;;9.27;8.38;;;18.60;27.40;;;;;;5193849;28;20072;-63
2021/04/24 11:03:01;;;;;;;12.90;10.90;;;18.80;28.50;;;;;;5190461;28;20104;-63
2021/04/24 11:05:35;;;;;;;13.35;11.68;;;18.90;27.60;;;;;;5192783;28;20045;-64
2021/04/24 11:08:22;;;;;;;9.30;8.40;;;19.00;27.30;;;;;;5192643;28;20052;-63
2021/04/24 11:11:10;;;;;;;9.27;8.27;;;19.20;27.70;;;;;;5190992;28;20045;-63
2021/04/24 11:13:42;;;;;;;9.10;8.05;;;19.20;27.40;;;;;;5193471;28;20045;-63
2021/04/24 11:16:17;;;;;;;10.35;8.20;;;19.20;27.00;;;;;;5193412;28;20675;-64
2021/04/24 11:18:51;;;;;;;10.00;8.75;;;19.30;27.50;;;;;;5193005;28;20445;-63
2021/04/24 11:21:23;;;;;;;10.38;8.07;;;19.40;26.60;;;;;;5192083;28;20160;-63
2021/04/24 11:24:11;;;;;;;11.02;7.50;;;19.40;26.30;;;;;;5192996;28;21184;-63
2021/04/24 11:26:46;;;;;;;9.95;7.88;;;19.30;26.60;;;;;;5223193;28;20040;-63
2021/04/24 11:29:33;;;;;;;8.73;7.93;;;19.60;25.50;;;;;;5191266;28;20037;-63
2021/04/24 11:32:18;;;;;;;9.18;8.27;;;19.70;25.70;;;;;;5191345;28;20874;-63
2021/04/24 11:34:49;;;;;;;12.30;8.32;;;19.70;25.70;;;;;;5190311;28;20053;-63
2021/04/24 11:37:24;;;;;;;10.40;8.25;;;19.80;25.70;;;;;;5191206;28;20692;-65
2021/04/24 11:40:15;;;;;;;9.35;8.40;;;19.80;26.10;;;;;;5192213;28;20638;-63
2021/04/24 11:43:00;;;;;;;9.43;8.43;;;19.90;26.00;;;;;;5192012;28;20120;-63
2021/04/24 11:45:53;;;;;;;10.10;9.10;;;20.10;26.00;;;;;;5190488;28;20182;-64
2021/04/24 11:48:44;;;;;;;10.05;9.05;;;20.00;25.40;;;;;;5194269;28;20126;-63
2021/04/24 11:51:32;;;;;;;9.40;8.50;;;20.20;25.50;;;;;;5192605;28;20041;-64
2021/04/24 11:54:27;;;;;;;10.15;9.15;;;20.50;25.10;;;;;;5192775;28;20042;-63
2021/04/24 11:57:01;;;;;;;9.30;8.38;;;20.70;25.20;;;;;;5191445;28;20057;-63
2021/04/24 11:59:35;;;;;;;9.55;8.65;;;20.80;25.00;;;;;;5191435;28;20050;-63
2021/04/24 12:02:20;;;;;;;9.98;8.57;;;20.90;23.20;;;;;;5189389;28;20045;-64
2021/04/24 12:05:00;;;;;;;8.55;7.65;;;20.80;24.10;;;;;;5189185;28;20136;-64
2021/04/24 12:07:42;;;;;;;9.95;8.35;;;20.90;24.40;;;;;;5189380;28;20045;-63
2021/04/24 12:10:16;;;;;;;9.18;8.20;;;21.00;23.70;;;;;;5187101;28;20136;-64
2021/04/24 12:12:49;;;;;;;9.25;8.25;;;21.20;23.90;;;;;;5189286;28;20099;-65
2021/04/24 12:15:23;;;;;;;9.18;8.27;;;21.40;22.80;;;;;;5221638;28;20625;-63
2021/04/24 12:18:05;;;;;;;9.60;8.55;;;21.40;23.40;;;;;;5192782;28;20964;-63
2021/04/24 12:20:44;;;;;;;8.93;8.02;;;21.60;22.40;;;;;;5194152;28;20445;-64
2021/04/24 12:23:17;;;;;;;10.23;7.78;;;21.50;22.30;;;;;;5190367;28;20250;-63
2021/04/24 12:25:50;;;;;;;8.20;7.40;;;21.60;22.30;;;;;;5223726;28;20042;-63
2021/04/24 12:28:24;;;;;;;15.80;8.90;;;21.80;21.40;;;;;;5225606;28;20049;-62
2021/04/24 12:30:56;;;;;;;10.63;8.23;;;21.80;21.10;;;;;;5190228;28;20515;-62
2021/04/24 12:33:29;;;;;;;8.75;7.78;;;21.70;20.80;;;;;;5189980;28;20746;-63
2021/04/24 12:36:02;;;;;;;9.30;8.30;;;21.80;21.70;;;;;;5190723;28;20051;-62
2021/04/24 12:38:33;;;;;;;9.50;8.50;;;22.00;22.40;;;;;;5190507;28;20155;-62
2021/04/24 12:41:06;;;;;;;9.55;8.73;;;22.20;22.90;;;;;;5190298;28;20049;-63
2021/04/24 12:43:40;;;;;;;9.63;8.60;;;22.40;23.00;;;;;;5191808;28;20037;-62
2021/04/24 12:46:11;;;;;;;9.95;8.95;;;22.70;21.80;;;;;;5189653;28;20041;-63
2021/04/24 12:48:48;;;;;;;9.48;8.48;;;22.80;21.40;;;;;;5190346;28;20041;-63
2021/04/24 12:51:22;;;;;;;9.45;8.55;;;22.80;21.30;;;;;;5190739;28;20049;-64
2021/04/24 12:53:54;;;;;;;9.63;8.65;;;22.80;21.50;;;;;;5190707;28;20151;-63
2021/04/24 12:56:31;;;;;;;9.77;8.88;;;22.70;21.80;;;;;;5190021;28;20051;-63
2021/04/24 12:59:04;;;;;;;9.70;8.77;;;22.60;21.60;;;;;;5194931;28;20458;-63
2021/04/24 13:01:36;;;;;;;9.32;8.30;;;22.70;22.10;;;;;;5189263;28;20556;-63
2021/04/24 13:04:14;;;;;;;9.35;8.45;;;22.60;21.20;;;;;;5178200;28;20059;-63
2021/04/24 13:07:00;;;;;;;9.23;8.43;;;22.80;21.90;;;;;;5189887;28;20493;-63
2021/04/24 13:09:34;;;;;;;10.05;9.15;;;22.90;22.30;;;;;;5192664;28;20045;-63
2021/04/24 13:12:08;;;;;;;9.77;8.88;;;23.00;21.10;;;;;;5192381;28;20044;-64
2021/04/24 13:14:43;;;;;;;10.63;9.52;;;22.80;20.50;;;;;;5191028;28;20099;-63
2021/04/24 13:17:21;;;;;;;9.60;8.70;;;22.50;23.10;;;;;;5205320;28;20709;-62
2021/04/24 13:19:55;;;;;;;9.85;8.95;;;22.50;23.10;;;;;;5191603;28;20033;-63
2021/04/24 13:22:31;;;;;;;10.38;9.48;;;22.80;21.90;;;;;;5191958;28;20529;-63
2021/04/24 13:25:09;;;;;;;10.25;9.25;;;23.10;20.90;;;;;;5192332;28;20554;-63
2021/04/24 13:27:40;;;;;;;10.35;9.45;;;23.10;22.10;;;;;;5226749;28;20088;-63